sensor_id;sensor_type;location;lat;lon;timestamp;pressure;altitude;pressure_sealevel;temperature
40199;BMP280;25906;43.536;26.068;2024-02-26T00:01:10;98473.66;;;11.50
40199;BMP280;25906;43.536;26.068;2024-02-26T00:03:56;98481.44;;;11.45
40199;BMP280;25906;43.536;26.068;2024-02-26T00:06:44;98475.09;;;11.42
40199;BMP280;25906;43.536;26.068;2024-02-26T00:09:30;98477.16;;;11.38
40199;BMP280;25906;43.536;26.068;2024-02-26T00:12:15;98464.72;;;11.35
40199;BMP280;25906;43.536;26.068;2024-02-26T00:15:01;98462.41;;;11.37
40199;BMP280;25906;43.536;26.068;2024-02-26T00:17:46;98465.91;;;11.34
40199;BMP280;25906;43.536;26.068;2024-02-26T00:20:32;98468.31;;;11.41
40199;BMP280;25906;43.536;26.068;2024-02-26T00:23:17;98465.91;;;11.34
40199;BMP280;25906;43.536;26.068;2024-02-26T00:26:03;98462.66;;;11.30
40199;BMP280;25906;43.536;26.068;2024-02-26T00:28:48;98457.81;;;11.16
40199;BMP280;25906;43.536;26.068;2024-02-26T00:31:34;98452.66;;;11.13
40199;BMP280;25906;43.536;26.068;2024-02-26T00:34:21;98449.34;;;11.21
40199;BMP280;25906;43.536;26.068;2024-02-26T00:37:07;98446.19;;;11.14
40199;BMP280;25906;43.536;26.068;2024-02-26T00:39:52;98445.16;;;11.11
40199;BMP280;25906;43.536;26.068;2024-02-26T00:42:39;98443.03;;;11.06
40199;BMP280;25906;43.536;26.068;2024-02-26T00:45:30;98441.13;;;11.06
40199;BMP280;25906;43.536;26.068;2024-02-26T00:48:17;98440.38;;;11.06
40199;BMP280;25906;43.536;26.068;2024-02-26T00:51:03;98433.94;;;11.07
40199;BMP280;25906;43.536;26.068;2024-02-26T00:53:50;98435.63;;;11.01
40199;BMP280;25906;43.536;26.068;2024-02-26T00:56:35;98433.72;;;11.01
40199;BMP280;25906;43.536;26.068;2024-02-26T00:59:21;98422.72;;;11.03
40199;BMP280;25906;43.536;26.068;2024-02-26T01:02:06;98427.50;;;10.95
40199;BMP280;25906;43.536;26.068;2024-02-26T01:04:52;98428.34;;;10.92
40199;BMP280;25906;43.536;26.068;2024-02-26T01:07:37;98432.47;;;10.93
40199;BMP280;25906;43.536;26.068;2024-02-26T01:10:23;98432.59;;;10.90
40199;BMP280;25906;43.536;26.068;2024-02-26T01:13:08;98428.03;;;10.90
40199;BMP280;25906;43.536;26.068;2024-02-26T01:15:54;98431.22;;;10.85
40199;BMP280;25906;43.536;26.068;2024-02-26T01:18:39;98425.19;;;10.85
40199;BMP280;25906;43.536;26.068;2024-02-26T01:21:24;98426.50;;;10.80
40199;BMP280;25906;43.536;26.068;2024-02-26T01:24:12;98427.44;;;10.74
40199;BMP280;25906;43.536;26.068;2024-02-26T01:26:57;98425.34;;;10.69
40199;BMP280;25906;43.536;26.068;2024-02-26T01:29:43;98422.50;;;10.63
40199;BMP280;25906;43.536;26.068;2024-02-26T01:32:28;98423.78;;;10.58
40199;BMP280;25906;43.536;26.068;2024-02-26T01:35:13;98420.84;;;10.56
40199;BMP280;25906;43.536;26.068;2024-02-26T01:37:59;98415.22;;;10.54
40199;BMP280;25906;43.536;26.068;2024-02-26T01:40:44;98415.84;;;10.58
40199;BMP280;25906;43.536;26.068;2024-02-26T01:43:30;98409.59;;;10.52
40199;BMP280;25906;43.536;26.068;2024-02-26T01:46:16;98418.38;;;10.49
40199;BMP280;25906;43.536;26.068;2024-02-26T01:49:02;98416.81;;;10.52
40199;BMP280;25906;43.536;26.068;2024-02-26T01:51:48;98410.16;;;10.47
40199;BMP280;25906;43.536;26.068;2024-02-26T01:54:35;98409.19;;;10.41
40199;BMP280;25906;43.536;26.068;2024-02-26T01:57:22;98411.09;;;10.41
40199;BMP280;25906;43.536;26.068;2024-02-26T02:00:07;98402.88;;;10.26
40199;BMP280;25906;43.536;26.068;2024-02-26T02:02:53;98407.31;;;10.29
40199;BMP280;25906;43.536;26.068;2024-02-26T02:05:40;98404.88;;;10.22
40199;BMP280;25906;43.536;26.068;2024-02-26T02:08:27;98404.88;;;10.22
40199;BMP280;25906;43.536;26.068;2024-02-26T02:11:13;98402.66;;;10.21
40199;BMP280;25906;43.536;26.068;2024-02-26T02:14:00;98410.38;;;10.15
40199;BMP280;25906;43.536;26.068;2024-02-26T02:16:46;98404.25;;;10.18
40199;BMP280;25906;43.536;26.068;2024-02-26T02:19:32;98407.63;;;10.19
40199;BMP280;25906;43.536;26.068;2024-02-26T02:22:18;98402.34;;;10.31
40199;BMP280;25906;43.536;26.068;2024-02-26T02:25:03;98406.78;;;10.34
40199;BMP280;25906;43.536;26.068;2024-02-26T02:27:50;98398.22;;;10.30
40199;BMP280;25906;43.536;26.068;2024-02-26T02:30:36;98399.59;;;10.35
40199;BMP280;25906;43.536;26.068;2024-02-26T02:33:23;98406.56;;;10.41
40199;BMP280;25906;43.536;26.068;2024-02-26T02:36:09;98408.44;;;10.41
40199;BMP280;25906;43.536;26.068;2024-02-26T02:38:56;98401.25;;;10.41
40199;BMP280;25906;43.536;26.068;2024-02-26T02:41:42;98405.19;;;10.37
40199;BMP280;25906;43.536;26.068;2024-02-26T02:44:27;98411.03;;;10.32
40199;BMP280;25906;43.536;26.068;2024-02-26T02:47:13;98412.81;;;10.35
40199;BMP280;25906;43.536;26.068;2024-02-26T02:49:58;98405.63;;;10.35
40199;BMP280;25906;43.536;26.068;2024-02-26T02:52:44;98411.72;;;10.45
40199;BMP280;25906;43.536;26.068;2024-02-26T02:55:29;98414.59;;;10.50
40199;BMP280;25906;43.536;26.068;2024-02-26T02:58:15;98418.91;;;10.44
40199;BMP280;25906;43.536;26.068;2024-02-26T03:01:00;98413.22;;;10.46
40199;BMP280;25906;43.536;26.068;2024-02-26T03:03:46;98410.91;;;10.48
40199;BMP280;25906;43.536;26.068;2024-02-26T03:06:31;98418.19;;;10.56
40199;BMP280;25906;43.536;26.068;2024-02-26T03:09:17;98411.94;;;10.50
40199;BMP280;25906;43.536;26.068;2024-02-26T03:12:02;98411.31;;;10.46
40199;BMP280;25906;43.536;26.068;2024-02-26T03:14:48;98408.66;;;10.46
40199;BMP280;25906;43.536;26.068;2024-02-26T03:17:34;98418.31;;;10.40
40199;BMP280;25906;43.536;26.068;2024-02-26T03:20:19;98418.41;;;10.37
40199;BMP280;25906;43.536;26.068;2024-02-26T03:23:05;98416.09;;;10.39
40199;BMP280;25906;43.536;26.068;2024-02-26T03:25:50;98416.50;;;10.37
40199;BMP280;25906;43.536;26.068;2024-02-26T03:28:36;98412.81;;;10.35
40199;BMP280;25906;43.536;26.068;2024-02-26T03:31:21;98412.91;;;10.44
40199;BMP280;25906;43.536;26.068;2024-02-26T03:34:06;98415.84;;;10.46
40199;BMP280;25906;43.536;26.068;2024-02-26T03:36:52;98414.69;;;10.47
40199;BMP280;25906;43.536;26.068;2024-02-26T03:39:37;98419.25;;;10.46
40199;BMP280;25906;43.536;26.068;2024-02-26T03:42:23;98420.91;;;10.53
40199;BMP280;25906;43.536;26.068;2024-02-26T03:45:09;98421.56;;;10.44
40199;BMP280;25906;43.536;26.068;2024-02-26T03:47:54;98416.59;;;10.46
40199;BMP280;25906;43.536;26.068;2024-02-26T03:50:40;98423.06;;;10.45
40199;BMP280;25906;43.536;26.068;2024-02-26T03:53:25;98417.03;;;10.45
40199;BMP280;25906;43.536;26.068;2024-02-26T03:56:11;98403.03;;;10.44
40199;BMP280;25906;43.536;26.068;2024-02-26T03:58:57;98409.91;;;10.54
40199;BMP280;25906;43.536;26.068;2024-02-26T04:01:45;98417.44;;;10.56
40199;BMP280;25906;43.536;26.068;2024-02-26T04:04:35;98413.09;;;10.49
40199;BMP280;25906;43.536;26.068;2024-02-26T04:07:20;98409.53;;;10.43
40199;BMP280;25906;43.536;26.068;2024-02-26T04:10:10;98407.63;;;10.44
40199;BMP280;25906;43.536;26.068;2024-02-26T04:12:55;98411.03;;;10.32
40199;BMP280;25906;43.536;26.068;2024-02-26T04:15:41;98407.41;;;10.38
40199;BMP280;25906;43.536;26.068;2024-02-26T04:18:27;98408.44;;;10.41
40199;BMP280;25906;43.536;26.068;2024-02-26T04:21:12;98405.09;;;10.40
40199;BMP280;25906;43.536;26.068;2024-02-26T04:23:58;98404.34;;;10.40
40199;BMP280;25906;43.536;26.068;2024-02-26T04:26:46;98406.56;;;10.41
40199;BMP280;25906;43.536;26.068;2024-02-26T04:29:32;98409.53;;;10.43
40199;BMP280;25906;43.536;26.068;2024-02-26T04:32:17;98415.56;;;10.44
40199;BMP280;25906;43.536;26.068;2024-02-26T04:35:03;98410.97;;;10.44
40199;BMP280;25906;43.536;26.068;2024-02-26T04:37:48;98408.16;;;10.39
40199;BMP280;25906;43.536;26.068;2024-02-26T04:40:34;98415.66;;;10.40
40199;BMP280;25906;43.536;26.068;2024-02-26T04:43:19;98408.03;;;10.42
40199;BMP280;25906;43.536;26.068;2024-02-26T04:46:05;98415.66;;;10.40
40199;BMP280;25906;43.536;26.068;2024-02-26T04:48:51;98415.84;;;10.46
40199;BMP280;25906;43.536;26.068;2024-02-26T04:51:36;98417.75;;;10.45
40199;BMP280;25906;43.536;26.068;2024-02-26T04:54:22;98414.19;;;10.39
40199;BMP280;25906;43.536;26.068;2024-02-26T04:57:07;98420.09;;;10.43
40199;BMP280;25906;43.536;26.068;2024-02-26T04:59:53;98418.22;;;10.31
40199;BMP280;25906;43.536;26.068;2024-02-26T05:02:38;98428.69;;;10.35
40199;BMP280;25906;43.536;26.068;2024-02-26T05:05:24;98439.78;;;10.30
40199;BMP280;25906;43.536;26.068;2024-02-26T05:08:10;98438.28;;;10.29
40199;BMP280;25906;43.536;26.068;2024-02-26T05:10:55;98434.81;;;10.32
40199;BMP280;25906;43.536;26.068;2024-02-26T05:13:41;98434.81;;;10.32
40199;BMP280;25906;43.536;26.068;2024-02-26T05:16:28;98436.84;;;10.28
40199;BMP280;25906;43.536;26.068;2024-02-26T05:19:15;98439.25;;;10.35
40199;BMP280;25906;43.536;26.068;2024-02-26T05:22:00;98443.28;;;10.39
40199;BMP280;25906;43.536;26.068;2024-02-26T05:24:46;98447.50;;;10.37
40199;BMP280;25906;43.536;26.068;2024-02-26T05:27:32;98442.63;;;10.48
40199;BMP280;25906;43.536;26.068;2024-02-26T05:30:17;98447.06;;;10.51
40199;BMP280;25906;43.536;26.068;2024-02-26T05:33:03;98444.66;;;10.56
40199;BMP280;25906;43.536;26.068;2024-02-26T05:35:48;98450.88;;;10.63
40199;BMP280;25906;43.536;26.068;2024-02-26T05:38:34;98452.13;;;10.71
40199;BMP280;25906;43.536;26.068;2024-02-26T05:41:19;98458.28;;;10.68
40199;BMP280;25906;43.536;26.068;2024-02-26T05:44:08;98464.72;;;10.67
40199;BMP280;25906;43.536;26.068;2024-02-26T05:46:55;98462.19;;;10.63
40199;BMP280;25906;43.536;26.068;2024-02-26T05:49:41;98471.09;;;10.56
40199;BMP280;25906;43.536;26.068;2024-02-26T05:52:29;98471.09;;;10.56
40199;BMP280;25906;43.536;26.068;2024-02-26T05:55:18;98481.69;;;10.56
40199;BMP280;25906;43.536;26.068;2024-02-26T05:58:03;98481.06;;;10.65
40199;BMP280;25906;43.536;26.068;2024-02-26T06:00:49;98487.16;;;10.62
40199;BMP280;25906;43.536;26.068;2024-02-26T06:03:34;98486.22;;;10.69
40199;BMP280;25906;43.536;26.068;2024-02-26T06:06:20;98485.69;;;10.74
40199;BMP280;25906;43.536;26.068;2024-02-26T06:09:07;98482.63;;;10.75
40199;BMP280;25906;43.536;26.068;2024-02-26T06:11:53;98489.06;;;10.74
40199;BMP280;25906;43.536;26.068;2024-02-26T06:14:39;98486.53;;;10.83
40199;BMP280;25906;43.536;26.068;2024-02-26T06:17:27;98492.66;;;10.80
40199;BMP280;25906;43.536;26.068;2024-02-26T06:20:12;98498.91;;;10.86
40199;BMP280;25906;43.536;26.068;2024-02-26T06:22:58;98496.75;;;10.94
40199;BMP280;25906;43.536;26.068;2024-02-26T06:25:43;98503.00;;;11.00
40199;BMP280;25906;43.536;26.068;2024-02-26T06:28:29;98504.25;;;11.08
40199;BMP280;25906;43.536;26.068;2024-02-26T06:31:17;98518.31;;;11.18
40199;BMP280;25906;43.536;26.068;2024-02-26T06:34:03;98522.03;;;11.20
40199;BMP280;25906;43.536;26.068;2024-02-26T06:36:48;98514.16;;;11.29
40199;BMP280;25906;43.536;26.068;2024-02-26T06:39:34;98513.78;;;11.40
40199;BMP280;25906;43.536;26.068;2024-02-26T06:42:19;98524.75;;;11.51
40199;BMP280;25906;43.536;26.068;2024-02-26T06:45:05;98527.41;;;11.51
40199;BMP280;25906;43.536;26.068;2024-02-26T06:47:50;98520.28;;;11.61
40199;BMP280;25906;43.536;26.068;2024-02-26T06:50:36;98520.16;;;11.64
40199;BMP280;25906;43.536;26.068;2024-02-26T06:53:21;98522.38;;;11.66
40199;BMP280;25906;43.536;26.068;2024-02-26T06:56:07;98527.41;;;11.73
40199;BMP280;25906;43.536;26.068;2024-02-26T06:58:52;98522.91;;;11.82
40199;BMP280;25906;43.536;26.068;2024-02-26T07:01:41;98527.88;;;11.93
40199;BMP280;25906;43.536;26.068;2024-02-26T07:04:26;98524.97;;;12.00
40199;BMP280;25906;43.536;26.068;2024-02-26T07:07:12;98527.97;;;12.11
40199;BMP280;25906;43.536;26.068;2024-02-26T07:09:57;98527.13;;;12.23
40199;BMP280;25906;43.536;26.068;2024-02-26T07:12:43;98519.81;;;12.27
40199;BMP280;25906;43.536;26.068;2024-02-26T07:15:28;98525.16;;;12.45
40199;BMP280;25906;43.536;26.068;2024-02-26T07:18:14;98523.75;;;12.63
40199;BMP280;25906;43.536;26.068;2024-02-26T07:21:02;98519.91;;;12.64
40199;BMP280;25906;43.536;26.068;2024-02-26T07:23:47;98531.44;;;12.79
40199;BMP280;25906;43.536;26.068;2024-02-26T07:26:33;98533.25;;;12.91
40199;BMP280;25906;43.536;26.068;2024-02-26T07:29:18;98529.88;;;13.09
40199;BMP280;25906;43.536;26.068;2024-02-26T07:32:04;98528.41;;;13.26
40199;BMP280;25906;43.536;26.068;2024-02-26T07:34:50;98525.31;;;13.45
40199;BMP280;25906;43.536;26.068;2024-02-26T07:37:35;98526.03;;;13.55
40199;BMP280;25906;43.536;26.068;2024-02-26T07:40:21;98523.34;;;13.73
40199;BMP280;25906;43.536;26.068;2024-02-26T07:43:07;98528.63;;;13.91
40199;BMP280;25906;43.536;26.068;2024-02-26T07:45:52;98525.00;;;14.13
40199;BMP280;25906;43.536;26.068;2024-02-26T07:48:38;98526.84;;;14.30
40199;BMP280;25906;43.536;26.068;2024-02-26T07:51:23;98526.72;;;14.58
40199;BMP280;25906;43.536;26.068;2024-02-26T07:54:09;98519.63;;;14.78
40199;BMP280;25906;43.536;26.068;2024-02-26T07:56:54;98519.25;;;15.09
40199;BMP280;25906;43.536;26.068;2024-02-26T07:59:40;98516.34;;;15.22
40199;BMP280;25906;43.536;26.068;2024-02-26T08:02:26;98521.59;;;15.45
40199;BMP280;25906;43.536;26.068;2024-02-26T08:05:11;98520.69;;;15.48
40199;BMP280;25906;43.536;26.068;2024-02-26T08:07:57;98519.13;;;15.56
40199;BMP280;25906;43.536;26.068;2024-02-26T08:10:42;98514.72;;;15.68
40199;BMP280;25906;43.536;26.068;2024-02-26T08:13:28;98523.97;;;15.73
40199;BMP280;25906;43.536;26.068;2024-02-26T08:16:13;98520.41;;;15.76
40199;BMP280;25906;43.536;26.068;2024-02-26T08:18:59;98524.06;;;15.78
40199;BMP280;25906;43.536;26.068;2024-02-26T08:21:44;98527.94;;;15.92
40199;BMP280;25906;43.536;26.068;2024-02-26T08:24:30;98516.78;;;15.93
40199;BMP280;25906;43.536;26.068;2024-02-26T08:27:16;98526.47;;;15.91
40199;BMP280;25906;43.536;26.068;2024-02-26T08:30:01;98527.28;;;15.97
40199;BMP280;25906;43.536;26.068;2024-02-26T08:32:47;98526.06;;;16.12
40199;BMP280;25906;43.536;26.068;2024-02-26T08:35:33;98526.91;;;15.89
40199;BMP280;25906;43.536;26.068;2024-02-26T08:38:19;98532.50;;;16.06
40199;BMP280;25906;43.536;26.068;2024-02-26T08:41:04;98533.78;;;16.10
40199;BMP280;25906;43.536;26.068;2024-02-26T08:43:50;98529.34;;;16.22
40199;BMP280;25906;43.536;26.068;2024-02-26T08:46:35;98532.31;;;16.44
40199;BMP280;25906;43.536;26.068;2024-02-26T08:49:21;98537.13;;;16.40
40199;BMP280;25906;43.536;26.068;2024-02-26T08:52:08;98528.28;;;16.34
40199;BMP280;25906;43.536;26.068;2024-02-26T08:54:54;98538.72;;;16.32
40199;BMP280;25906;43.536;26.068;2024-02-26T08:57:39;98530.81;;;16.23
40199;BMP280;25906;43.536;26.068;2024-02-26T09:00:25;98534.88;;;16.19
40199;BMP280;25906;43.536;26.068;2024-02-26T09:03:10;98527.69;;;16.10
40199;BMP280;25906;43.536;26.068;2024-02-26T09:05:56;98531.88;;;15.96
40199;BMP280;25906;43.536;26.068;2024-02-26T09:08:42;98540.66;;;15.82
40199;BMP280;25906;43.536;26.068;2024-02-26T09:11:28;98527.00;;;15.95
40199;BMP280;25906;43.536;26.068;2024-02-26T09:14:13;98529.03;;;16.00
40199;BMP280;25906;43.536;26.068;2024-02-26T09:16:58;98537.81;;;16.21
40199;BMP280;25906;43.536;26.068;2024-02-26T09:19:44;98528.34;;;16.20
40199;BMP280;25906;43.536;26.068;2024-02-26T09:22:29;98534.03;;;16.27
40199;BMP280;25906;43.536;26.068;2024-02-26T09:25:15;98536.28;;;16.14
40199;BMP280;25906;43.536;26.068;2024-02-26T09:28:01;98534.88;;;16.19
40199;BMP280;25906;43.536;26.068;2024-02-26T09:30:46;98540.88;;;16.13
40199;BMP280;25906;43.536;26.068;2024-02-26T09:33:32;98537.03;;;16.15
40199;BMP280;25906;43.536;26.068;2024-02-26T09:36:18;98534.06;;;16.12
40199;BMP280;25906;43.536;26.068;2024-02-26T09:39:03;98534.09;;;15.98
40199;BMP280;25906;43.536;26.068;2024-02-26T09:41:49;98528.59;;;15.87
40199;BMP280;25906;43.536;26.068;2024-02-26T09:44:36;98530.72;;;15.83
40199;BMP280;25906;43.536;26.068;2024-02-26T09:47:23;98527.88;;;15.72
40199;BMP280;25906;43.536;26.068;2024-02-26T09:50:11;98531.16;;;15.67
40199;BMP280;25906;43.536;26.068;2024-02-26T09:52:59;98531.09;;;15.61
40199;BMP280;25906;43.536;26.068;2024-02-26T09:55:48;98532.00;;;15.58
40199;BMP280;25906;43.536;26.068;2024-02-26T09:58:34;98525.66;;;15.55
40199;BMP280;25906;43.536;26.068;2024-02-26T10:01:20;98530.06;;;15.58
40199;BMP280;25906;43.536;26.068;2024-02-26T10:04:06;98526.56;;;15.67
40199;BMP280;25906;43.536;26.068;2024-02-26T10:06:52;98526.94;;;15.75
40199;BMP280;25906;43.536;26.068;2024-02-26T10:09:38;98522.06;;;15.73
40199;BMP280;25906;43.536;26.068;2024-02-26T10:12:23;98521.97;;;15.82
40199;BMP280;25906;43.536;26.068;2024-02-26T10:15:11;98513.91;;;15.77
40199;BMP280;25906;43.536;26.068;2024-02-26T10:17:56;98509.72;;;15.90
40199;BMP280;25906;43.536;26.068;2024-02-26T10:20:41;98503.56;;;15.84
40199;BMP280;25906;43.536;26.068;2024-02-26T10:23:27;98495.38;;;15.88
40199;BMP280;25906;43.536;26.068;2024-02-26T10:26:14;98492.69;;;15.88
40199;BMP280;25906;43.536;26.068;2024-02-26T10:29:00;98493.69;;;15.90
40199;BMP280;25906;43.536;26.068;2024-02-26T10:31:46;98491.78;;;15.91
40199;BMP280;25906;43.536;26.068;2024-02-26T10:34:32;98486.97;;;15.95
40199;BMP280;25906;43.536;26.068;2024-02-26T10:37:17;98484.09;;;16.13
40199;BMP280;25906;43.536;26.068;2024-02-26T10:40:03;98482.28;;;16.04
40199;BMP280;25906;43.536;26.068;2024-02-26T10:42:49;98472.94;;;16.15
40199;BMP280;25906;43.536;26.068;2024-02-26T10:45:37;98474.88;;;16.34
40199;BMP280;25906;43.536;26.068;2024-02-26T10:48:26;98473.41;;;16.53
40199;BMP280;25906;43.536;26.068;2024-02-26T10:51:13;98465.53;;;16.64
40199;BMP280;25906;43.536;26.068;2024-02-26T10:53:59;98468.28;;;16.70
40199;BMP280;25906;43.536;26.068;2024-02-26T10:56:49;98463.09;;;16.87
40199;BMP280;25906;43.536;26.068;2024-02-26T10:59:35;98472.00;;;17.04
40199;BMP280;25906;43.536;26.068;2024-02-26T11:02:21;98463.75;;;17.28
40199;BMP280;25906;43.536;26.068;2024-02-26T11:05:07;98462.53;;;17.65
40199;BMP280;25906;43.536;26.068;2024-02-26T11:07:54;98460.28;;;17.95
40199;BMP280;25906;43.536;26.068;2024-02-26T11:10:40;98462.09;;;18.15
40199;BMP280;25906;43.536;26.068;2024-02-26T11:13:30;98449.25;;;18.30
40199;BMP280;25906;43.536;26.068;2024-02-26T11:16:21;98449.56;;;17.90
40199;BMP280;25906;43.536;26.068;2024-02-26T11:19:08;98450.41;;;17.70
40199;BMP280;25906;43.536;26.068;2024-02-26T11:21:55;98443.19;;;17.87
40199;BMP280;25906;43.536;26.068;2024-02-26T11:24:41;98450.50;;;17.92
40199;BMP280;25906;43.536;26.068;2024-02-26T11:27:42;98452.22;;;17.90
40199;BMP280;25906;43.536;26.068;2024-02-26T11:30:31;98446.34;;;17.86
40199;BMP280;25906;43.536;26.068;2024-02-26T11:33:19;98439.84;;;17.98
40199;BMP280;25906;43.536;26.068;2024-02-26T11:36:11;98436.22;;;18.06
40199;BMP280;25906;43.536;26.068;2024-02-26T11:38:57;98436.03;;;18.15
40199;BMP280;25906;43.536;26.068;2024-02-26T11:41:43;98433.13;;;18.13
40199;BMP280;25906;43.536;26.068;2024-02-26T11:44:29;98433.13;;;18.19
40199;BMP280;25906;43.536;26.068;2024-02-26T11:47:20;98428.81;;;18.38
40199;BMP280;25906;43.536;26.068;2024-02-26T11:50:34;98422.03;;;18.54
40199;BMP280;25906;43.536;26.068;2024-02-26T11:53:30;98416.97;;;18.83
40199;BMP280;25906;43.536;26.068;2024-02-26T11:59:37;98408.16;;;19.27
40199;BMP280;25906;43.536;26.068;2024-02-26T12:02:46;98410.59;;;19.31
40199;BMP280;25906;43.536;26.068;2024-02-26T12:05:33;98404.44;;;19.53
40199;BMP280;25906;43.536;26.068;2024-02-26T12:08:20;98399.09;;;19.47
40199;BMP280;25906;43.536;26.068;2024-02-26T12:11:14;98403.38;;;19.78
40199;BMP280;25906;43.536;26.068;2024-02-26T12:14:00;98398.47;;;19.93
40199;BMP280;25906;43.536;26.068;2024-02-26T12:16:46;98395.00;;;20.03
40199;BMP280;25906;43.536;26.068;2024-02-26T12:19:33;98392.47;;;20.17
40199;BMP280;25906;43.536;26.068;2024-02-26T12:22:19;98391.34;;;20.01
40199;BMP280;25906;43.536;26.068;2024-02-26T12:25:05;98390.53;;;20.12
40199;BMP280;25906;43.536;26.068;2024-02-26T12:27:51;98387.56;;;20.21
40199;BMP280;25906;43.536;26.068;2024-02-26T12:30:36;98379.28;;;20.19
40199;BMP280;25906;43.536;26.068;2024-02-26T12:33:22;98384.91;;;20.15
40199;BMP280;25906;43.536;26.068;2024-02-26T12:36:07;98378.06;;;20.20
40199;BMP280;25906;43.536;26.068;2024-02-26T12:38:53;98380.03;;;20.19
40199;BMP280;25906;43.536;26.068;2024-02-26T12:41:38;98372.19;;;20.21
40199;BMP280;25906;43.536;26.068;2024-02-26T12:44:25;98375.84;;;20.24
40199;BMP280;25906;43.536;26.068;2024-02-26T12:47:11;98374.69;;;20.14
40199;BMP280;25906;43.536;26.068;2024-02-26T12:50:02;98376.84;;;20.15
40199;BMP280;25906;43.536;26.068;2024-02-26T12:52:51;98371.91;;;20.25
40199;BMP280;25906;43.536;26.068;2024-02-26T12:55:36;98375.94;;;20.01
40199;BMP280;25906;43.536;26.068;2024-02-26T12:58:24;98368.06;;;20.15
40199;BMP280;25906;43.536;26.068;2024-02-26T13:01:14;98376.53;;;20.24
40199;BMP280;25906;43.536;26.068;2024-02-26T13:04:01;98377.06;;;20.17
40199;BMP280;25906;43.536;26.068;2024-02-26T13:06:51;98378.00;;;20.25
40199;BMP280;25906;43.536;26.068;2024-02-26T13:09:37;98375.84;;;20.24
40199;BMP280;25906;43.536;26.068;2024-02-26T13:12:23;98377.56;;;20.21
40199;BMP280;25906;43.536;26.068;2024-02-26T13:15:14;98383.00;;;20.10
40199;BMP280;25906;43.536;26.068;2024-02-26T13:18:09;98380.06;;;20.14
40199;BMP280;25906;43.536;26.068;2024-02-26T13:21:14;98378.28;;;20.16
40199;BMP280;25906;43.536;26.068;2024-02-26T13:24:00;98379.31;;;20.13
40199;BMP280;25906;43.536;26.068;2024-02-26T13:26:45;98381.06;;;19.99
40199;BMP280;25906;43.536;26.068;2024-02-26T13:29:31;98387.53;;;19.80
40199;BMP280;25906;43.536;26.068;2024-02-26T13:32:17;98392.16;;;19.79
40199;BMP280;25906;43.536;26.068;2024-02-26T13:35:09;98391.69;;;19.81
40199;BMP280;25906;43.536;26.068;2024-02-26T13:37:56;98393.16;;;19.71
40199;BMP280;25906;43.536;26.068;2024-02-26T13:40:42;98390.75;;;19.62
40199;BMP280;25906;43.536;26.068;2024-02-26T13:43:27;98392.47;;;19.65
40199;BMP280;25906;43.536;26.068;2024-02-26T13:46:13;98392.47;;;19.59
40199;BMP280;25906;43.536;26.068;2024-02-26T13:49:00;98396.59;;;19.60
40199;BMP280;25906;43.536;26.068;2024-02-26T13:51:45;98397.59;;;19.63
40199;BMP280;25906;43.536;26.068;2024-02-26T13:54:31;98396.81;;;19.73
40199;BMP280;25906;43.536;26.068;2024-02-26T13:57:19;98395.88;;;19.65
40199;BMP280;25906;43.536;26.068;2024-02-26T14:00:05;98402.28;;;19.45
40199;BMP280;25906;43.536;26.068;2024-02-26T14:02:51;98400.34;;;19.40
40199;BMP280;25906;43.536;26.068;2024-02-26T14:05:37;98402.28;;;19.40
40199;BMP280;25906;43.536;26.068;2024-02-26T14:08:22;98407.16;;;19.36
40199;BMP280;25906;43.536;26.068;2024-02-26T14:11:08;98410.34;;;19.34
40199;BMP280;25906;43.536;26.068;2024-02-26T14:13:53;98404.97;;;19.12
40199;BMP280;25906;43.536;26.068;2024-02-26T14:16:39;98405.00;;;18.84
40199;BMP280;25906;43.536;26.068;2024-02-26T14:19:25;98405.22;;;18.75
40199;BMP280;25906;43.536;26.068;2024-02-26T14:22:11;98411.09;;;18.74
40199;BMP280;25906;43.536;26.068;2024-02-26T14:24:57;98406.16;;;18.45
40199;BMP280;25906;43.536;26.068;2024-02-26T14:27:43;98403.97;;;18.43
40199;BMP280;25906;43.536;26.068;2024-02-26T14:30:28;98406.16;;;18.39
40199;BMP280;25906;43.536;26.068;2024-02-26T14:33:14;98412.53;;;18.47
40199;BMP280;25906;43.536;26.068;2024-02-26T14:35:59;98412.00;;;18.49
40199;BMP280;25906;43.536;26.068;2024-02-26T14:38:45;98406.91;;;18.56
40199;BMP280;25906;43.536;26.068;2024-02-26T14:41:30;98409.84;;;18.53
40199;BMP280;25906;43.536;26.068;2024-02-26T14:44:16;98409.13;;;18.47
40199;BMP280;25906;43.536;26.068;2024-02-26T14:47:02;98425.16;;;18.41
40199;BMP280;25906;43.536;26.068;2024-02-26T14:49:47;98418.56;;;18.31
40199;BMP280;25906;43.536;26.068;2024-02-26T14:52:33;98417.31;;;18.26
40199;BMP280;25906;43.536;26.068;2024-02-26T14:55:19;98420.94;;;18.18
40199;BMP280;25906;43.536;26.068;2024-02-26T14:58:04;98423.34;;;18.16
40199;BMP280;25906;43.536;26.068;2024-02-26T15:00:51;98428.44;;;18.08
40199;BMP280;25906;43.536;26.068;2024-02-26T15:03:36;98428.66;;;17.99
40199;BMP280;25906;43.536;26.068;2024-02-26T15:06:22;98435.69;;;17.91
40199;BMP280;25906;43.536;26.068;2024-02-26T15:09:08;98442.72;;;17.89
40199;BMP280;25906;43.536;26.068;2024-02-26T15:11:53;98443.94;;;17.88
40199;BMP280;25906;43.536;26.068;2024-02-26T15:14:39;98450.66;;;17.77
40199;BMP280;25906;43.536;26.068;2024-02-26T15:17:25;98449.94;;;17.71
40199;BMP280;25906;43.536;26.068;2024-02-26T15:20:13;98454.25;;;17.63
40199;BMP280;25906;43.536;26.068;2024-02-26T15:22:58;98448.59;;;17.56
40199;BMP280;25906;43.536;26.068;2024-02-26T15:25:44;98449.25;;;17.45
40199;BMP280;25906;43.536;26.068;2024-02-26T15:28:29;98457.56;;;17.47
40199;BMP280;25906;43.536;26.068;2024-02-26T15:31:19;98459.34;;;17.30
40199;BMP280;25906;43.536;26.068;2024-02-26T15:34:05;98471.03;;;17.27
40199;BMP280;25906;43.536;26.068;2024-02-26T15:36:50;98465.84;;;17.23
40199;BMP280;25906;43.536;26.068;2024-02-26T15:39:37;98468.69;;;17.14
40199;BMP280;25906;43.536;26.068;2024-02-26T15:42:22;98470.78;;;17.05
40199;BMP280;25906;43.536;26.068;2024-02-26T15:45:08;98471.28;;;17.03
40199;BMP280;25906;43.536;26.068;2024-02-26T15:47:54;98476.56;;;16.98